sensor_id;sensor_type;location;lat;lon;timestamp;pressure;altitude;pressure_sealevel;temperature;humidity
49122;BME280;35529;44.342;25.944;2023-05-02T00:02:16;101272.78;;;11.73;100.00
49122;BME280;35529;44.342;25.944;2023-05-02T00:04:46;101277.63;;;11.70;100.00
49122;BME280;35529;44.342;25.944;2023-05-02T00:07:17;101274.50;;;11.66;100.00
49122;BME280;35529;44.342;25.944;2023-05-02T00:09:46;101280.38;;;11.62;100.00
49122;BME280;35529;44.342;25.944;2023-05-02T00:12:14;101280.72;;;11.58;100.00
49122;BME280;35529;44.342;25.944;2023-05-02T00:14:46;101287.09;;;11.57;100.00
49122;BME280;35529;44.342;25.944;2023-05-02T00:17:17;101268.81;;;11.54;100.00
49122;BME280;35529;44.342;25.944;2023-05-02T00:19:46;101283.31;;;11.52;100.00
49122;BME280;35529;44.342;25.944;2023-05-02T00:22:12;101284.53;;;11.49;100.00
49122;BME280;35529;44.342;25.944;2023-05-02T00:24:38;101282.00;;;11.48;100.00
49122;BME280;35529;44.342;25.944;2023-05-02T00:27:04;101288.38;;;11.47;100.00
49122;BME280;35529;44.342;25.944;2023-05-02T00:29:33;101285.72;;;11.47;100.00
49122;BME280;35529;44.342;25.944;2023-05-02T00:31:59;101287.91;;;11.43;100.00
49122;BME280;35529;44.342;25.944;2023-05-02T00:34:32;101278.06;;;11.44;100.00
49122;BME280;35529;44.342;25.944;2023-05-02T00:37:01;101282.66;;;11.35;100.00
49122;BME280;35529;44.342;25.944;2023-05-02T00:39:32;101294.91;;;11.21;100.00
49122;BME280;35529;44.342;25.944;2023-05-02T00:42:01;101295.66;;;11.15;100.00
49122;BME280;35529;44.342;25.944;2023-05-02T00:44:27;101283.25;;;11.07;100.00
49122;BME280;35529;44.342;25.944;2023-05-02T00:46:56;101286.16;;;10.97;100.00
49122;BME280;35529;44.342;25.944;2023-05-02T00:49:23;101294.66;;;10.93;100.00
49122;BME280;35529;44.342;25.944;2023-05-02T00:51:49;101296.50;;;10.92;100.00
49122;BME280;35529;44.342;25.944;2023-05-02T00:54:18;101288.34;;;10.94;100.00
49122;BME280;35529;44.342;25.944;2023-05-02T00:56:46;101288.16;;;10.95;100.00
49122;BME280;35529;44.342;25.944;2023-05-02T00:59:13;101292.47;;;10.96;100.00
49122;BME280;35529;44.342;25.944;2023-05-02T01:14:34;101291.22;;;10.69;100.00
49122;BME280;35529;44.342;25.944;2023-05-02T01:17:05;101292.19;;;10.68;100.00
49122;BME280;35529;44.342;25.944;2023-05-02T01:19:34;101287.88;;;10.67;100.00
49122;BME280;35529;44.342;25.944;2023-05-02T01:22:05;101290.13;;;10.55;100.00
49122;BME280;35529;44.342;25.944;2023-05-02T01:24:40;101293.81;;;10.46;100.00
49122;BME280;35529;44.342;25.944;2023-05-02T01:29:40;101296.47;;;10.46;100.00
49122;BME280;35529;44.342;25.944;2023-05-02T01:32:08;101290.19;;;10.47;100.00
49122;BME280;35529;44.342;25.944;2023-05-02T01:34:40;101295.53;;;10.38;100.00
49122;BME280;35529;44.342;25.944;2023-05-02T01:37:08;101295.19;;;10.33;100.00
49122;BME280;35529;44.342;25.944;2023-05-02T01:39:35;101295.25;;;10.25;100.00
49122;BME280;35529;44.342;25.944;2023-05-02T01:42:08;101298.09;;;10.15;100.00
49122;BME280;35529;44.342;25.944;2023-05-02T01:44:36;101292.38;;;10.03;100.00
49122;BME280;35529;44.342;25.944;2023-05-02T01:47:03;101290.88;;;10.01;100.00
49122;BME280;35529;44.342;25.944;2023-05-02T01:49:30;101292.69;;;10.00;100.00
49122;BME280;35529;44.342;25.944;2023-05-02T01:51:58;101302.66;;;9.98;100.00
49122;BME280;35529;44.342;25.944;2023-05-02T01:54:28;101303.50;;;9.99;100.00
49122;BME280;35529;44.342;25.944;2023-05-02T01:56:59;101317.75;;;9.98;100.00
49122;BME280;35529;44.342;25.944;2023-05-02T01:59:28;101313.59;;;9.95;100.00
49122;BME280;35529;44.342;25.944;2023-05-02T02:01:55;101316.59;;;9.92;100.00
49122;BME280;35529;44.342;25.944;2023-05-02T02:04:22;101315.31;;;9.88;100.00
49122;BME280;35529;44.342;25.944;2023-05-02T02:06:52;101306.69;;;9.86;100.00
49122;BME280;35529;44.342;25.944;2023-05-02T02:09:22;101299.25;;;9.81;100.00
49122;BME280;35529;44.342;25.944;2023-05-02T02:11:51;101308.38;;;9.79;100.00
49122;BME280;35529;44.342;25.944;2023-05-02T02:14:21;101308.53;;;9.77;100.00
49122;BME280;35529;44.342;25.944;2023-05-02T02:16:50;101307.06;;;9.75;100.00
49122;BME280;35529;44.342;25.944;2023-05-02T02:19:23;101308.91;;;9.74;100.00
49122;BME280;35529;44.342;25.944;2023-05-02T02:21:52;101307.22;;;9.73;100.00
49122;BME280;35529;44.342;25.944;2023-05-02T02:24:23;101320.66;;;9.71;100.00
49122;BME280;35529;44.342;25.944;2023-05-02T02:26:50;101305.56;;;9.72;100.00
49122;BME280;35529;44.342;25.944;2023-05-02T02:29:17;101315.34;;;9.71;100.00
49122;BME280;35529;44.342;25.944;2023-05-02T02:31:43;101320.84;;;9.70;100.00
49122;BME280;35529;44.342;25.944;2023-05-02T02:34:09;101317.00;;;9.64;100.00
49122;BME280;35529;44.342;25.944;2023-05-02T02:36:42;101319.03;;;9.62;100.00
49122;BME280;35529;44.342;25.944;2023-05-02T02:41:46;101322.16;;;9.57;100.00
49122;BME280;35529;44.342;25.944;2023-05-02T02:47:04;101320.22;;;9.43;100.00
49122;BME280;35529;44.342;25.944;2023-05-02T02:52:27;101322.72;;;9.36;100.00
49122;BME280;35529;44.342;25.944;2023-05-02T02:54:59;101323.88;;;9.34;100.00
49122;BME280;35529;44.342;25.944;2023-05-02T03:02:30;101336.31;;;9.17;100.00
49122;BME280;35529;44.342;25.944;2023-05-02T03:04:56;101337.13;;;9.09;100.00
49122;BME280;35529;44.342;25.944;2023-05-02T03:07:23;101332.16;;;9.06;100.00
49122;BME280;35529;44.342;25.944;2023-05-02T03:09:52;101337.81;;;9.03;100.00
49122;BME280;35529;44.342;25.944;2023-05-02T03:12:18;101339.78;;;9.01;100.00
49122;BME280;35529;44.342;25.944;2023-05-02T03:14:44;101344.09;;;9.02;100.00
49122;BME280;35529;44.342;25.944;2023-05-02T03:17:10;101348.72;;;9.00;100.00
49122;BME280;35529;44.342;25.944;2023-05-02T03:19:36;101346.06;;;9.08;100.00
49122;BME280;35529;44.342;25.944;2023-05-02T03:22:03;101339.47;;;9.20;100.00
49122;BME280;35529;44.342;25.944;2023-05-02T03:24:29;101351.53;;;9.31;100.00
49122;BME280;35529;44.342;25.944;2023-05-02T03:26:56;101350.53;;;9.41;100.00
49122;BME280;35529;44.342;25.944;2023-05-02T03:29:25;101346.41;;;9.46;100.00
49122;BME280;35529;44.342;25.944;2023-05-02T03:31:53;101352.50;;;9.55;100.00
49122;BME280;35529;44.342;25.944;2023-05-02T03:34:19;101357.47;;;9.58;100.00
49122;BME280;35529;44.342;25.944;2023-05-02T03:36:47;101359.16;;;9.59;100.00
49122;BME280;35529;44.342;25.944;2023-05-02T03:39:13;101362.78;;;9.58;100.00
49122;BME280;35529;44.342;25.944;2023-05-02T03:41:39;101361.94;;;9.57;100.00
49122;BME280;35529;44.342;25.944;2023-05-02T03:44:07;101359.78;;;9.61;100.00
49122;BME280;35529;44.342;25.944;2023-05-02T03:46:35;101371.22;;;9.70;100.00
49122;BME280;35529;44.342;25.944;2023-05-02T03:49:01;101368.56;;;9.78;100.00
49122;BME280;35529;44.342;25.944;2023-05-02T03:51:27;101369.16;;;9.88;100.00
49122;BME280;35529;44.342;25.944;2023-05-02T03:53:53;101374.13;;;10.00;100.00
49122;BME280;35529;44.342;25.944;2023-05-02T03:56:19;101381.25;;;10.07;100.00
49122;BME280;35529;44.342;25.944;2023-05-02T03:58:46;101373.25;;;10.16;100.00
49122;BME280;35529;44.342;25.944;2023-05-02T04:01:13;101381.00;;;10.26;100.00
49122;BME280;35529;44.342;25.944;2023-05-02T04:03:40;101377.34;;;10.35;100.00
49122;BME280;35529;44.342;25.944;2023-05-02T04:06:08;101373.66;;;10.44;100.00
49122;BME280;35529;44.342;25.944;2023-05-02T04:08:34;101372.97;;;10.50;100.00
49122;BME280;35529;44.342;25.944;2023-05-02T04:11:02;101376.56;;;10.57;100.00
49122;BME280;35529;44.342;25.944;2023-05-02T04:13:29;101379.19;;;10.66;100.00
49122;BME280;35529;44.342;25.944;2023-05-02T04:15:55;101376.03;;;10.70;100.00
49122;BME280;35529;44.342;25.944;2023-05-02T04:18:21;101375.31;;;10.77;100.00
49122;BME280;35529;44.342;25.944;2023-05-02T04:20:47;101377.38;;;10.89;100.00
49122;BME280;35529;44.342;25.944;2023-05-02T04:23:13;101383.31;;;11.00;100.00
49122;BME280;35529;44.342;25.944;2023-05-02T04:25:39;101382.69;;;11.13;100.00
49122;BME280;35529;44.342;25.944;2023-05-02T04:28:05;101386.25;;;11.28;100.00
49122;BME280;35529;44.342;25.944;2023-05-02T04:30:31;101380.84;;;11.36;100.00
49122;BME280;35529;44.342;25.944;2023-05-02T04:32:57;101385.72;;;11.48;100.00
49122;BME280;35529;44.342;25.944;2023-05-02T04:35:24;101377.22;;;11.52;100.00
49122;BME280;35529;44.342;25.944;2023-05-02T04:37:50;101371.81;;;11.61;100.00
49122;BME280;35529;44.342;25.944;2023-05-02T04:40:16;101371.75;;;11.69;100.00
49122;BME280;35529;44.342;25.944;2023-05-02T04:42:42;101359.63;;;11.81;100.00
49122;BME280;35529;44.342;25.944;2023-05-02T04:45:08;101365.84;;;11.97;100.00
49122;BME280;35529;44.342;25.944;2023-05-02T04:47:34;101368.88;;;12.09;100.00
49122;BME280;35529;44.342;25.944;2023-05-02T04:50:01;101357.09;;;12.18;100.00
49122;BME280;35529;44.342;25.944;2023-05-02T04:52:28;101365.25;;;12.31;100.00
49122;BME280;35529;44.342;25.944;2023-05-02T04:54:55;101367.91;;;12.46;100.00
49122;BME280;35529;44.342;25.944;2023-05-02T04:57:21;101373.19;;;12.61;100.00
49122;BME280;35529;44.342;25.944;2023-05-02T04:59:48;101369.19;;;12.72;100.00
49122;BME280;35529;44.342;25.944;2023-05-02T05:02:14;101366.69;;;12.85;100.00
49122;BME280;35529;44.342;25.944;2023-05-02T05:04:40;101375.38;;;12.94;100.00
49122;BME280;35529;44.342;25.944;2023-05-02T05:07:06;101372.00;;;13.07;100.00
49122;BME280;35529;44.342;25.944;2023-05-02T05:09:32;101368.41;;;13.15;100.00
49122;BME280;35529;44.342;25.944;2023-05-02T05:11:58;101378.16;;;13.29;100.00
49122;BME280;35529;44.342;25.944;2023-05-02T05:14:24;101369.84;;;13.39;100.00
49122;BME280;35529;44.342;25.944;2023-05-02T05:16:50;101372.53;;;13.39;100.00
49122;BME280;35529;44.342;25.944;2023-05-02T05:19:16;101371.31;;;13.41;100.00
49122;BME280;35529;44.342;25.944;2023-05-02T05:21:42;101371.03;;;13.58;100.00
49122;BME280;35529;44.342;25.944;2023-05-02T05:24:09;101376.41;;;13.65;100.00
49122;BME280;35529;44.342;25.944;2023-05-02T05:26:35;101375.28;;;13.81;100.00
49122;BME280;35529;44.342;25.944;2023-05-02T05:29:02;101379.19;;;13.85;100.00
49122;BME280;35529;44.342;25.944;2023-05-02T05:31:28;101380.28;;;13.90;100.00
49122;BME280;35529;44.342;25.944;2023-05-02T05:33:54;101370.25;;;13.99;100.00
49122;BME280;35529;44.342;25.944;2023-05-02T05:36:22;101376.69;;;14.12;100.00
49122;BME280;35529;44.342;25.944;2023-05-02T05:38:51;101374.88;;;14.19;100.00
49122;BME280;35529;44.342;25.944;2023-05-02T05:41:17;101386.19;;;14.21;100.00
49122;BME280;35529;44.342;25.944;2023-05-02T05:43:43;101387.44;;;14.25;100.00
49122;BME280;35529;44.342;25.944;2023-05-02T05:46:09;101383.56;;;14.34;100.00
49122;BME280;35529;44.342;25.944;2023-05-02T05:48:38;101379.06;;;14.35;100.00
49122;BME280;35529;44.342;25.944;2023-05-02T05:51:04;101390.38;;;14.44;100.00
49122;BME280;35529;44.342;25.944;2023-05-02T05:53:31;101387.34;;;14.47;100.00
49122;BME280;35529;44.342;25.944;2023-05-02T05:55:57;101393.31;;;14.55;100.00
49122;BME280;35529;44.342;25.944;2023-05-02T05:58:23;101387.84;;;14.70;100.00
49122;BME280;35529;44.342;25.944;2023-05-02T06:00:50;101392.41;;;14.83;100.00
49122;BME280;35529;44.342;25.944;2023-05-02T06:03:16;101384.00;;;14.93;100.00
49122;BME280;35529;44.342;25.944;2023-05-02T06:05:42;101388.13;;;15.02;100.00
49122;BME280;35529;44.342;25.944;2023-05-02T06:08:08;101389.38;;;15.27;100.00
49122;BME280;35529;44.342;25.944;2023-05-02T06:10:34;101393.50;;;15.49;100.00
49122;BME280;35529;44.342;25.944;2023-05-02T06:13:00;101390.81;;;15.63;100.00
49122;BME280;35529;44.342;25.944;2023-05-02T06:15:26;101398.63;;;15.71;100.00
49122;BME280;35529;44.342;25.944;2023-05-02T06:17:52;101399.03;;;15.74;100.00
49122;BME280;35529;44.342;25.944;2023-05-02T06:20:19;101399.25;;;15.86;100.00
49122;BME280;35529;44.342;25.944;2023-05-02T06:22:45;101395.56;;;15.87;100.00
49122;BME280;35529;44.342;25.944;2023-05-02T06:25:11;101403.56;;;15.94;100.00
49122;BME280;35529;44.342;25.944;2023-05-02T06:27:37;101392.00;;;16.07;100.00
49122;BME280;35529;44.342;25.944;2023-05-02T06:30:03;101395.66;;;16.19;100.00
49122;BME280;35529;44.342;25.944;2023-05-02T06:32:30;101395.22;;;16.29;100.00
49122;BME280;35529;44.342;25.944;2023-05-02T06:34:57;101390.06;;;16.34;100.00
49122;BME280;35529;44.342;25.944;2023-05-02T06:37:23;101383.47;;;16.30;100.00
49122;BME280;35529;44.342;25.944;2023-05-02T06:39:49;101383.06;;;16.27;100.00
49122;BME280;35529;44.342;25.944;2023-05-02T06:42:15;101383.44;;;16.44;100.00
49122;BME280;35529;44.342;25.944;2023-05-02T06:44:41;101380.84;;;16.62;100.00
49122;BME280;35529;44.342;25.944;2023-05-02T06:47:07;101380.16;;;16.73;100.00
49122;BME280;35529;44.342;25.944;2023-05-02T06:49:33;101376.19;;;16.83;100.00
49122;BME280;35529;44.342;25.944;2023-05-02T06:51:59;101378.88;;;16.89;100.00
49122;BME280;35529;44.342;25.944;2023-05-02T06:54:25;101376.91;;;17.03;100.00
49122;BME280;35529;44.342;25.944;2023-05-02T06:56:52;101386.91;;;17.21;100.00
49122;BME280;35529;44.342;25.944;2023-05-02T06:59:18;101382.84;;;17.37;100.00
49122;BME280;35529;44.342;25.944;2023-05-02T07:01:44;101380.63;;;17.53;100.00
49122;BME280;35529;44.342;25.944;2023-05-02T07:04:11;101378.44;;;17.68;100.00
49122;BME280;35529;44.342;25.944;2023-05-02T07:06:37;101376.28;;;17.77;100.00
49122;BME280;35529;44.342;25.944;2023-05-02T07:09:03;101378.78;;;17.72;100.00
49122;BME280;35529;44.342;25.944;2023-05-02T07:11:29;101368.16;;;17.84;100.00
49122;BME280;35529;44.342;25.944;2023-05-02T07:13:55;101372.75;;;18.02;100.00
49122;BME280;35529;44.342;25.944;2023-05-02T07:16:22;101376.81;;;18.23;100.00
49122;BME280;35529;44.342;25.944;2023-05-02T07:18:48;101377.84;;;18.40;100.00
49122;BME280;35529;44.342;25.944;2023-05-02T07:21:14;101381.44;;;18.53;100.00
49122;BME280;35529;44.342;25.944;2023-05-02T07:23:40;101388.94;;;18.63;100.00
49122;BME280;35529;44.342;25.944;2023-05-02T07:26:07;101389.56;;;18.76;100.00
49122;BME280;35529;44.342;25.944;2023-05-02T07:28:33;101389.84;;;18.87;100.00
49122;BME280;35529;44.342;25.944;2023-05-02T07:30:59;101385.75;;;18.84;100.00
49122;BME280;35529;44.342;25.944;2023-05-02T07:33:25;101383.22;;;18.89;100.00
49122;BME280;35529;44.342;25.944;2023-05-02T07:35:51;101386.50;;;19.03;100.00
49122;BME280;35529;44.342;25.944;2023-05-02T07:38:17;101389.00;;;19.17;100.00
49122;BME280;35529;44.342;25.944;2023-05-02T07:40:44;101389.16;;;19.34;100.00
49122;BME280;35529;44.342;25.944;2023-05-02T07:43:12;101388.56;;;19.43;100.00
49122;BME280;35529;44.342;25.944;2023-05-02T07:45:38;101391.13;;;19.50;100.00
49122;BME280;35529;44.342;25.944;2023-05-02T07:48:04;101387.41;;;19.51;100.00
49122;BME280;35529;44.342;25.944;2023-05-02T07:50:30;101384.25;;;19.54;100.00
49122;BME280;35529;44.342;25.944;2023-05-02T07:52:56;101390.69;;;19.65;100.00
49122;BME280;35529;44.342;25.944;2023-05-02T07:55:22;101385.28;;;19.77;100.00
49122;BME280;35529;44.342;25.944;2023-05-02T07:57:52;101395.41;;;19.82;100.00
49122;BME280;35529;44.342;25.944;2023-05-02T08:00:18;101390.22;;;19.80;100.00
49122;BME280;35529;44.342;25.944;2023-05-02T08:02:44;101391.50;;;19.77;100.00
49122;BME280;35529;44.342;25.944;2023-05-02T08:05:10;101397.84;;;19.83;100.00
49122;BME280;35529;44.342;25.944;2023-05-02T08:07:37;101386.59;;;19.86;100.00
49122;BME280;35529;44.342;25.944;2023-05-02T08:10:03;101390.25;;;19.92;100.00
49122;BME280;35529;44.342;25.944;2023-05-02T08:12:30;101386.94;;;19.90;100.00
49122;BME280;35529;44.342;25.944;2023-05-02T08:14:56;101383.75;;;19.93;100.00
49122;BME280;35529;44.342;25.944;2023-05-02T08:17:22;101393.00;;;20.09;100.00
49122;BME280;35529;44.342;25.944;2023-05-02T08:19:48;101391.56;;;20.18;100.00
49122;BME280;35529;44.342;25.944;2023-05-02T08:22:14;101383.84;;;20.22;100.00
49122;BME280;35529;44.342;25.944;2023-05-02T08:24:40;101386.03;;;20.25;100.00
49122;BME280;35529;44.342;25.944;2023-05-02T08:27:06;101390.88;;;20.23;100.00
49122;BME280;35529;44.342;25.944;2023-05-02T08:29:32;101398.47;;;20.26;100.00
49122;BME280;35529;44.342;25.944;2023-05-02T08:31:59;101386.38;;;20.40;100.00
49122;BME280;35529;44.342;25.944;2023-05-02T08:34:25;101391.22;;;20.55;100.00
49122;BME280;35529;44.342;25.944;2023-05-02T08:36:51;101391.66;;;20.64;100.00
49122;BME280;35529;44.342;25.944;2023-05-02T08:39:17;101383.00;;;20.62;100.00
49122;BME280;35529;44.342;25.944;2023-05-02T08:41:44;101382.63;;;20.70;100.00
49122;BME280;35529;44.342;25.944;2023-05-02T08:44:10;101386.81;;;20.78;100.00
49122;BME280;35529;44.342;25.944;2023-05-02T08:46:39;101385.03;;;20.84;100.00
49122;BME280;35529;44.342;25.944;2023-05-02T08:49:05;101384.38;;;20.93;100.00
49122;BME280;35529;44.342;25.944;2023-05-02T08:51:33;101379.31;;;20.97;100.00
49122;BME280;35529;44.342;25.944;2023-05-02T08:54:00;101379.16;;;21.04;100.00
49122;BME280;35529;44.342;25.944;2023-05-02T08:56:27;101372.78;;;21.10;100.00
49122;BME280;35529;44.342;25.944;2023-05-02T08:58:53;101385.28;;;21.16;100.00
49122;BME280;35529;44.342;25.944;2023-05-02T09:01:21;101371.41;;;21.24;100.00
49122;BME280;35529;44.342;25.944;2023-05-02T09:03:48;101374.50;;;21.33;100.00
49122;BME280;35529;44.342;25.944;2023-05-02T09:08:41;101371.88;;;21.38;100.00
49122;BME280;35529;44.342;25.944;2023-05-02T09:11:08;101374.91;;;21.42;100.00
49122;BME280;35529;44.342;25.944;2023-05-02T09:18:28;101365.53;;;21.67;100.00
49122;BME280;35529;44.342;25.944;2023-05-02T09:20:56;101365.88;;;21.70;100.00
49122;BME280;35529;44.342;25.944;2023-05-02T09:23:32;101364.56;;;21.73;100.00
49122;BME280;35529;44.342;25.944;2023-05-02T09:25:59;101366.50;;;21.77;100.00
49122;BME280;35529;44.342;25.944;2023-05-02T09:28:36;101366.00;;;21.81;100.00
49122;BME280;35529;44.342;25.944;2023-05-02T09:31:06;101358.75;;;21.64;100.00
49122;BME280;35529;44.342;25.944;2023-05-02T09:33:33;101357.19;;;21.68;100.00
49122;BME280;35529;44.342;25.944;2023-05-02T09:35:59;101357.59;;;21.77;100.00
49122;BME280;35529;44.342;25.944;2023-05-02T09:38:25;101361.50;;;21.86;100.00
49122;BME280;35529;44.342;25.944;2023-05-02T09:40:52;101362.31;;;21.87;100.00
49122;BME280;35529;44.342;25.944;2023-05-02T09:43:19;101359.22;;;21.78;100.00
49122;BME280;35529;44.342;25.944;2023-05-02T09:45:55;101348.59;;;21.71;100.00
49122;BME280;35529;44.342;25.944;2023-05-02T09:48:23;101343.75;;;21.73;100.00
49122;BME280;35529;44.342;25.944;2023-05-02T09:50:49;101338.84;;;21.70;94.25
49122;BME280;35529;44.342;25.944;2023-05-02T09:53:16;101336.44;;;21.74;100.00
49122;BME280;35529;44.342;25.944;2023-05-02T09:55:42;101345.38;;;21.74;100.00
49122;BME280;35529;44.342;25.944;2023-05-02T09:58:19;101334.31;;;21.76;100.00
49122;BME280;35529;44.342;25.944;2023-05-02T10:00:45;101326.22;;;21.76;100.00
49122;BME280;35529;44.342;25.944;2023-05-02T10:03:14;101344.38;;;21.81;100.00
49122;BME280;35529;44.342;25.944;2023-05-02T10:05:40;101339.16;;;21.74;100.00
49122;BME280;35529;44.342;25.944;2023-05-02T10:08:09;101338.41;;;21.79;100.00
49122;BME280;35529;44.342;25.944;2023-05-02T10:10:37;101339.88;;;21.86;100.00
49122;BME280;35529;44.342;25.944;2023-05-02T10:13:04;101339.59;;;21.88;100.00
49122;BME280;35529;44.342;25.944;2023-05-02T10:15:31;101334.94;;;21.83;100.00
49122;BME280;35529;44.342;25.944;2023-05-02T10:17:59;101329.25;;;21.80;100.00
49122;BME280;35529;44.342;25.944;2023-05-02T10:20:29;101322.94;;;21.74;100.00
49122;BME280;35529;44.342;25.944;2023-05-02T10:22:58;101322.81;;;21.86;98.62
49122;BME280;35529;44.342;25.944;2023-05-02T10:25:25;101322.75;;;22.03;100.00
49122;BME280;35529;44.342;25.944;2023-05-02T10:27:52;101323.41;;;22.15;100.00
49122;BME280;35529;44.342;25.944;2023-05-02T10:30:18;101328.84;;;22.15;100.00
49122;BME280;35529;44.342;25.944;2023-05-02T10:32:45;101324.00;;;22.17;100.00
49122;BME280;35529;44.342;25.944;2023-05-02T10:35:12;101312.53;;;22.32;100.00
49122;BME280;35529;44.342;25.944;2023-05-02T10:37:40;101310.19;;;22.41;100.00
49122;BME280;35529;44.342;25.944;2023-05-02T10:40:10;101309.22;;;22.52;100.00
49122;BME280;35529;44.342;25.944;2023-05-02T10:42:41;101301.97;;;22.58;100.00
49122;BME280;35529;44.342;25.944;2023-05-02T10:48:10;101307.75;;;22.67;100.00
49122;BME280;35529;44.342;25.944;2023-05-02T10:58:35;101313.25;;;22.50;92.83
49122;BME280;35529;44.342;25.944;2023-05-02T11:03:52;101306.78;;;22.51;100.00
49122;BME280;35529;44.342;25.944;2023-05-02T11:06:19;101303.88;;;22.57;100.00
49122;BME280;35529;44.342;25.944;2023-05-02T11:08:45;101304.38;;;22.54;100.00
49122;BME280;35529;44.342;25.944;2023-05-02T11:14:01;101299.41;;;22.73;93.27
49122;BME280;35529;44.342;25.944;2023-05-02T11:16:43;101304.78;;;22.68;93.89
49122;BME280;35529;44.342;25.944;2023-05-02T11:19:13;101297.47;;;22.69;93.03
49122;BME280;35529;44.342;25.944;2023-05-02T11:21:39;101300.16;;;22.69;86.65
49122;BME280;35529;44.342;25.944;2023-05-02T11:26:51;101287.34;;;22.91;100.00
49122;BME280;35529;44.342;25.944;2023-05-02T11:32:04;101299.00;;;23.24;92.37
49122;BME280;35529;44.342;25.944;2023-05-02T11:34:38;101297.38;;;23.29;100.00
49122;BME280;35529;44.342;25.944;2023-05-02T11:37:11;101283.00;;;23.28;90.75
49122;BME280;35529;44.342;25.944;2023-05-02T11:39:38;101294.63;;;23.23;97.95
49122;BME280;35529;44.342;25.944;2023-05-02T11:42:05;101289.78;;;23.25;87.95
49122;BME280;35529;44.342;25.944;2023-05-02T11:44:31;101284.91;;;23.27;100.00
49122;BME280;35529;44.342;25.944;2023-05-02T11:47:00;101279.50;;;23.27;100.00
49122;BME280;35529;44.342;25.944;2023-05-02T11:49:27;101275.44;;;23.30;95.64
49122;BME280;35529;44.342;25.944;2023-05-02T11:51:53;101268.44;;;23.39;100.00
49122;BME280;35529;44.342;25.944;2023-05-02T11:54:19;101268.19;;;23.41;88.17
49122;BME280;35529;44.342;25.944;2023-05-02T11:56:46;101271.09;;;23.29;90.46
49122;BME280;35529;44.342;25.944;2023-05-02T11:59:13;101271.06;;;23.24;100.00
49122;BME280;35529;44.342;25.944;2023-05-02T12:01:48;101271.63;;;23.26;88.18
49122;BME280;35529;44.342;25.944;2023-05-02T12:04:15;101265.66;;;23.29;100.00
49122;BME280;35529;44.342;25.944;2023-05-02T12:06:55;101264.63;;;23.35;95.63
49122;BME280;35529;44.342;25.944;2023-05-02T12:09:22;101267.06;;;23.37;87.65
49122;BME280;35529;44.342;25.944;2023-05-02T12:11:52;101259.50;;;23.39;100.00
49122;BME280;35529;44.342;25.944;2023-05-02T12:14:28;101262.72;;;23.36;100.00
49122;BME280;35529;44.342;25.944;2023-05-02T12:16:54;101249.47;;;23.39;100.00
49122;BME280;35529;44.342;25.944;2023-05-02T12:19:21;101240.03;;;23.47;85.70
49122;BME280;35529;44.342;25.944;2023-05-02T12:21:47;101238.69;;;23.55;98.47
49122;BME280;35529;44.342;25.944;2023-05-02T12:24:14;101230.56;;;23.55;85.05
49122;BME280;35529;44.342;25.944;2023-05-02T12:26:40;101231.97;;;23.68;84.72
49122;BME280;35529;44.342;25.944;2023-05-02T12:29:06;101232.53;;;23.80;92.83
49122;BME280;35529;44.342;25.944;2023-05-02T12:31:33;101237.44;;;23.83;85.36
49122;BME280;35529;44.342;25.944;2023-05-02T12:33:59;101225.78;;;23.88;80.81
49122;BME280;35529;44.342;25.944;2023-05-02T12:36:26;101232.81;;;23.79;77.91
49122;BME280;35529;44.342;25.944;2023-05-02T12:38:54;101225.75;;;23.83;98.12
49122;BME280;35529;44.342;25.944;2023-05-02T12:41:34;101226.38;;;23.90;93.76
49122;BME280;35529;44.342;25.944;2023-05-02T12:44:02;101223.16;;;24.03;93.07
49122;BME280;35529;44.342;25.944;2023-05-02T12:46:28;101223.16;;;24.03;81.59
49122;BME280;35529;44.342;25.944;2023-05-02T12:49:01;101212.28;;;23.98;100.00
49122;BME280;35529;44.342;25.944;2023-05-02T12:51:27;101209.56;;;23.93;100.00
49122;BME280;35529;44.342;25.944;2023-05-02T12:53:56;101196.53;;;24.05;86.59
49122;BME280;35529;44.342;25.944;2023-05-02T12:56:22;101196.56;;;24.10;80.56
49122;BME280;35529;44.342;25.944;2023-05-02T12:58:49;101199.28;;;24.10;97.73
49122;BME280;35529;44.342;25.944;2023-05-02T13:01:15;101201.72;;;24.17;88.54
49122;BME280;35529;44.342;25.944;2023-05-02T13:03:42;101200.91;;;24.17;99.73
49122;BME280;35529;44.342;25.944;2023-05-02T13:06:11;101199.53;;;24.09;78.16
49122;BME280;35529;44.342;25.944;2023-05-02T13:08:37;101198.72;;;24.14;76.00
49122;BME280;35529;44.342;25.944;2023-05-02T13:11:04;101188.69;;;24.24;82.04
49122;BME280;35529;44.342;25.944;2023-05-02T13:13:32;101198.75;;;24.34;73.94
49122;BME280;35529;44.342;25.944;2023-05-02T13:16:00;101194.94;;;24.46;74.19
49122;BME280;35529;44.342;25.944;2023-05-02T13:18:26;101195.47;;;24.53;69.54
49122;BME280;35529;44.342;25.944;2023-05-02T13:20:55;101194.66;;;24.57;71.79
49122;BME280;35529;44.342;25.944;2023-05-02T13:23:21;101187.88;;;24.65;76.86
49122;BME280;35529;44.342;25.944;2023-05-02T13:25:47;101181.06;;;24.78;67.11
49122;BME280;35529;44.342;25.944;2023-05-02T13:28:13;101193.81;;;24.93;71.15
49122;BME280;35529;44.342;25.944;2023-05-02T13:30:39;101186.75;;;24.92;61.59
49122;BME280;35529;44.342;25.944;2023-05-02T13:33:05;101180.47;;;24.91;60.47